createdAt,value
2023-05-05T00:00:00.451Z,3.30
2023-05-05T00:03:48.026Z,3.90
2023-05-05T00:07:15.077Z,4.50
2023-05-05T00:10:42.925Z,4.30
2023-05-05T00:14:12.222Z,4.10
2023-05-05T00:17:45.325Z,4.10
2023-05-05T00:21:12.980Z,4.20
2023-05-05T00:24:40.127Z,5.00
2023-05-05T00:28:07.200Z,4.50
2023-05-05T00:31:33.871Z,3.80
2023-05-05T00:35:00.964Z,3.60
2023-05-05T00:38:28.954Z,4.00
2023-05-05T00:41:55.619Z,4.30
2023-05-05T00:45:23.100Z,3.90
2023-05-05T00:48:50.328Z,3.70
2023-05-05T00:52:17.234Z,3.40
2023-05-05T00:55:46.771Z,3.50
2023-05-05T00:59:15.725Z,3.90
2023-05-05T01:02:43.352Z,3.30
2023-05-05T01:06:23.065Z,4.10
2023-05-05T01:10:18.099Z,3.30
2023-05-05T01:13:55.151Z,3.70
2023-05-05T01:17:26.265Z,3.80
2023-05-05T01:21:00.904Z,3.60
2023-05-05T01:24:47.807Z,3.30
2023-05-05T01:28:40.616Z,3.30
2023-05-05T01:32:12.553Z,3.60
2023-05-05T01:35:48.110Z,3.60
2023-05-05T01:39:23.359Z,3.50
2023-05-05T01:42:52.501Z,3.30
2023-05-05T01:46:21.334Z,3.10
2023-05-05T01:49:50.478Z,3.30
2023-05-05T01:53:19.468Z,3.10
2023-05-05T01:56:47.833Z,3.50
2023-05-05T02:00:19.083Z,3.50
2023-05-05T02:03:47.746Z,3.10
2023-05-05T02:07:17.173Z,3.00
2023-05-05T02:10:46.316Z,3.60
2023-05-05T02:14:14.476Z,3.60
2023-05-05T02:17:44.735Z,3.40
2023-05-05T02:21:11.907Z,2.90
2023-05-05T02:24:39.587Z,2.90
2023-05-05T02:28:12.660Z,3.10
2023-05-05T02:31:45.548Z,3.00
2023-05-05T02:35:18.725Z,3.40
2023-05-05T02:38:48.137Z,3.40
2023-05-05T02:42:21.237Z,3.40
2023-05-05T02:45:49.255Z,3.90
2023-05-05T02:49:16.721Z,3.50
2023-05-05T02:52:44.789Z,3.50
2023-05-05T02:56:25.102Z,3.70
2023-05-05T03:00:00.001Z,3.70
2023-05-05T03:03:32.729Z,3.10
2023-05-05T03:07:08.593Z,3.50
2023-05-05T03:10:45.601Z,3.50
2023-05-05T03:14:14.595Z,3.60
2023-05-05T03:17:44.606Z,3.00
2023-05-05T03:21:13.242Z,3.00
2023-05-05T03:24:44.682Z,3.40
2023-05-05T03:28:12.216Z,3.40
2023-05-05T03:31:39.192Z,3.20
2023-05-05T03:35:06.234Z,3.30
2023-05-05T03:38:33.105Z,2.80
2023-05-05T03:42:00.302Z,3.10
2023-05-05T03:45:30.024Z,2.80
2023-05-05T03:48:58.339Z,2.90
2023-05-05T03:52:25.803Z,3.30
2023-05-05T03:55:52.990Z,3.30
2023-05-05T03:59:20.312Z,3.20
2023-05-05T04:02:47.342Z,3.30
2023-05-05T04:06:14.504Z,3.40
2023-05-05T04:09:44.776Z,3.40
2023-05-05T04:13:12.361Z,2.70
2023-05-05T04:16:41.743Z,3.40
2023-05-05T04:20:11.244Z,3.30
2023-05-05T04:23:43.131Z,3.90
2023-05-05T04:27:10.961Z,3.70
2023-05-05T04:30:38.783Z,3.40
2023-05-05T04:34:06.447Z,4.00
2023-05-05T04:37:33.380Z,3.30
2023-05-05T04:41:00.740Z,3.30
2023-05-05T04:44:28.389Z,3.90
2023-05-05T04:47:56.075Z,3.30
2023-05-05T04:51:24.173Z,3.30
2023-05-05T04:54:51.699Z,3.50
2023-05-05T04:58:22.337Z,3.40
2023-05-05T05:01:49.851Z,4.00
2023-05-05T05:05:17.425Z,3.80
2023-05-05T05:08:44.521Z,3.90
2023-05-05T05:12:12.689Z,3.80
2023-05-05T05:15:40.883Z,4.30
2023-05-05T05:19:09.496Z,4.30
2023-05-05T05:22:38.757Z,4.30
2023-05-05T05:26:07.109Z,4.20
2023-05-05T05:29:35.664Z,4.80
2023-05-05T05:33:02.982Z,4.90
2023-05-05T05:36:30.000Z,3.90
2023-05-05T05:39:57.256Z,4.90
2023-05-05T05:43:24.495Z,4.40
2023-05-05T05:46:51.317Z,4.00
2023-05-05T05:50:18.750Z,4.10
2023-05-05T05:53:45.872Z,4.70
2023-05-05T05:57:14.574Z,4.30
2023-05-05T06:00:42.342Z,4.30
2023-05-05T06:04:09.690Z,4.10
2023-05-05T06:07:37.887Z,3.70
2023-05-05T06:11:05.184Z,4.20
2023-05-05T06:14:31.684Z,4.70
2023-05-05T06:17:58.975Z,4.50
2023-05-05T06:21:26.000Z,4.70
2023-05-05T06:24:52.953Z,5.10
2023-05-05T06:28:20.529Z,4.70
2023-05-05T06:31:47.934Z,5.10
2023-05-05T06:35:14.761Z,5.10
2023-05-05T06:38:41.616Z,4.60
2023-05-05T06:42:08.872Z,4.90
2023-05-05T06:45:36.315Z,4.50
2023-05-05T06:49:03.917Z,4.50
2023-05-05T06:52:30.990Z,5.00
2023-05-05T06:55:58.460Z,5.70
2023-05-05T06:59:26.541Z,5.60
2023-05-05T07:02:54.288Z,5.70
2023-05-05T07:06:22.444Z,5.50
2023-05-05T07:09:49.417Z,5.60
2023-05-05T07:13:18.388Z,4.90
2023-05-05T07:16:45.072Z,5.30
2023-05-05T07:20:14.688Z,4.90
2023-05-05T07:23:41.965Z,4.90
2023-05-05T07:27:09.625Z,5.10
2023-05-05T07:30:37.053Z,5.40
2023-05-05T07:34:03.926Z,5.50
2023-05-05T07:37:33.582Z,4.40
2023-05-05T07:41:07.012Z,4.70
2023-05-05T07:44:34.370Z,4.30
2023-05-05T07:48:01.741Z,4.10
2023-05-05T07:51:34.394Z,4.70
2023-05-05T07:55:02.193Z,4.90
2023-05-05T07:58:29.285Z,4.60
2023-05-05T08:01:56.716Z,4.30
2023-05-05T08:05:23.470Z,5.10
2023-05-05T08:08:51.084Z,6.60
2023-05-05T08:12:19.419Z,4.70
2023-05-05T08:15:46.525Z,4.80
2023-05-05T08:19:27.684Z,4.50
2023-05-05T08:22:55.967Z,4.80
2023-05-05T08:26:23.925Z,5.00
2023-05-05T08:29:51.319Z,5.40
2023-05-05T08:33:18.780Z,5.00
2023-05-05T08:36:49.417Z,4.70
2023-05-05T08:40:17.790Z,4.60
2023-05-05T08:43:47.654Z,4.60
2023-05-05T08:47:18.705Z,4.80
2023-05-05T08:50:51.371Z,4.60
2023-05-05T08:54:21.695Z,4.40
2023-05-05T08:57:52.906Z,4.40
2023-05-05T09:01:20.343Z,4.10
2023-05-05T09:04:47.585Z,4.40
2023-05-05T09:08:15.478Z,4.90
2023-05-05T09:11:43.189Z,4.20
2023-05-05T09:15:13.006Z,4.60
2023-05-05T09:18:43.265Z,4.20
2023-05-05T09:22:10.383Z,4.50
2023-05-05T09:25:37.762Z,4.40
2023-05-05T09:29:05.915Z,4.20
2023-05-05T09:32:47.156Z,4.10
2023-05-05T09:36:14.131Z,4.40
2023-05-05T09:39:57.137Z,4.40
2023-05-05T09:43:31.777Z,4.70
2023-05-05T09:47:01.651Z,4.10
2023-05-05T09:50:31.236Z,4.30
2023-05-05T09:53:58.747Z,4.60
2023-05-05T09:57:34.412Z,4.30
2023-05-05T10:01:02.137Z,4.30
2023-05-05T10:04:30.536Z,4.60
2023-05-05T10:08:12.822Z,3.90
2023-05-05T10:11:51.429Z,4.50
2023-05-05T10:15:21.677Z,3.80
2023-05-05T10:18:49.445Z,4.10
2023-05-05T10:22:16.334Z,4.80
2023-05-05T10:25:52.969Z,4.00
2023-05-05T10:29:32.076Z,4.10
2023-05-05T10:33:27.323Z,4.10
2023-05-05T10:36:55.689Z,4.20
2023-05-05T10:40:26.048Z,3.90
2023-05-05T10:43:54.736Z,3.80
2023-05-05T10:47:23.085Z,3.70
2023-05-05T10:50:54.453Z,3.90
2023-05-05T10:54:28.309Z,3.70
2023-05-05T10:57:56.229Z,3.60
2023-05-05T11:01:34.217Z,3.50
2023-05-05T11:05:14.530Z,3.40
2023-05-05T11:08:43.673Z,3.60
2023-05-05T11:12:14.053Z,4.70
2023-05-05T11:15:41.744Z,4.20
2023-05-05T11:19:48.602Z,3.50
2023-05-05T11:23:32.216Z,4.00
2023-05-05T11:26:59.611Z,3.40
2023-05-05T11:30:26.884Z,3.70
2023-05-05T11:33:54.229Z,3.30
2023-05-05T11:37:25.970Z,3.40
2023-05-05T11:40:55.390Z,3.20
2023-05-05T11:44:31.579Z,3.30
2023-05-05T11:48:28.574Z,3.00
2023-05-05T11:52:01.160Z,2.60
2023-05-05T11:55:29.129Z,2.80
2023-05-05T11:59:11.269Z,2.90
2023-05-05T12:02:38.436Z,2.90
2023-05-05T12:06:05.521Z,3.10
2023-05-05T12:09:32.172Z,2.50
2023-05-05T12:12:59.127Z,2.80
2023-05-05T12:16:26.015Z,2.60
2023-05-05T12:19:55.167Z,2.30
2023-05-05T12:23:21.962Z,2.50
2023-05-05T12:26:48.714Z,2.50
2023-05-05T12:30:20.961Z,2.50
2023-05-05T12:33:49.160Z,2.10
2023-05-05T12:37:17.166Z,2.30
2023-05-05T12:40:48.946Z,2.50
2023-05-05T12:44:16.335Z,2.30
2023-05-05T12:47:45.641Z,2.30
2023-05-05T12:51:23.514Z,2.00
2023-05-05T12:55:01.089Z,2.60
2023-05-05T12:58:29.374Z,2.10
2023-05-05T13:01:57.718Z,2.10
2023-05-05T13:05:36.461Z,1.90
2023-05-05T13:09:04.049Z,2.40
2023-05-05T13:12:30.918Z,2.10
2023-05-05T13:15:57.600Z,2.20
2023-05-05T13:19:28.410Z,2.40
2023-05-05T13:22:56.035Z,2.20
2023-05-05T13:26:22.955Z,2.00
2023-05-05T13:29:49.920Z,2.20
2023-05-05T13:33:18.278Z,2.20
2023-05-05T13:36:45.314Z,2.30
2023-05-05T13:40:14.716Z,2.70
2023-05-05T13:43:42.040Z,2.90
2023-05-05T13:47:10.300Z,2.40
2023-05-05T13:50:38.155Z,2.30
2023-05-05T13:54:06.735Z,2.00
2023-05-05T13:57:34.248Z,2.10
2023-05-05T14:01:01.628Z,1.50
2023-05-05T14:04:28.688Z,1.70
2023-05-05T14:07:56.816Z,2.10
2023-05-05T14:11:23.683Z,2.00
2023-05-05T14:14:53.019Z,2.20
2023-05-05T14:18:21.415Z,2.30
2023-05-05T14:21:48.186Z,1.80
2023-05-05T14:25:16.110Z,2.00
2023-05-05T14:28:43.829Z,2.40
2023-05-05T14:32:10.973Z,1.70
2023-05-05T14:35:38.116Z,1.60
2023-05-05T14:39:05.031Z,1.80
2023-05-05T14:42:31.918Z,1.70
2023-05-05T14:46:00.738Z,1.90
2023-05-05T14:49:27.969Z,1.90
2023-05-05T14:52:54.822Z,1.70
2023-05-05T14:56:22.734Z,1.80
2023-05-05T14:59:52.323Z,1.90
2023-05-05T15:03:19.474Z,1.50
2023-05-05T15:06:47.448Z,1.60
2023-05-05T15:10:15.237Z,1.90
2023-05-05T15:13:42.139Z,1.50
2023-05-05T15:17:08.986Z,1.80
2023-05-05T15:20:35.827Z,2.00
2023-05-05T15:24:05.100Z,2.00
2023-05-05T15:27:32.911Z,3.20
2023-05-05T15:31:02.059Z,1.90
2023-05-05T15:34:28.963Z,6.20
2023-05-05T15:37:56.422Z,2.40
2023-05-05T15:41:23.787Z,4.80
2023-05-05T15:44:50.909Z,2.50
2023-05-05T15:48:17.781Z,2.90
2023-05-05T15:51:46.015Z,2.30
2023-05-05T15:55:15.700Z,2.50
2023-05-05T15:58:45.450Z,2.50
2023-05-05T16:02:13.405Z,2.10
2023-05-05T16:05:42.295Z,2.10
2023-05-05T16:09:09.580Z,2.20
2023-05-05T16:12:41.422Z,2.60
2023-05-05T16:16:12.620Z,2.70
2023-05-05T16:19:40.130Z,2.80
2023-05-05T16:23:08.216Z,2.70
2023-05-05T16:26:36.133Z,2.70
2023-05-05T16:30:03.075Z,3.10
2023-05-05T16:33:32.763Z,2.10
2023-05-05T16:36:59.997Z,2.40
2023-05-05T16:40:27.947Z,2.90
2023-05-05T16:43:57.957Z,2.60
2023-05-05T16:47:25.502Z,3.00
2023-05-05T16:50:52.668Z,2.70
2023-05-05T16:54:25.693Z,2.50
2023-05-05T16:57:53.134Z,2.90
2023-05-05T17:01:20.401Z,2.80
2023-05-05T17:04:47.439Z,3.30
2023-05-05T17:08:16.878Z,2.90
2023-05-05T17:11:54.731Z,5.20
2023-05-05T17:15:26.105Z,3.60
2023-05-05T17:18:55.416Z,3.00
2023-05-05T17:22:23.764Z,3.40
2023-05-05T17:25:54.713Z,3.40
2023-05-05T17:29:23.530Z,3.70
2023-05-05T17:32:53.420Z,3.10
2023-05-05T17:36:24.673Z,2.90
2023-05-05T17:39:53.104Z,3.80
2023-05-05T17:43:33.003Z,3.30
2023-05-05T17:50:57.016Z,3.20
2023-05-05T17:58:14.005Z,3.30
2023-05-05T18:01:48.866Z,3.30
2023-05-05T18:05:16.064Z,3.30
2023-05-05T18:08:48.036Z,3.80
2023-05-05T18:12:17.647Z,3.90
2023-05-05T18:15:46.803Z,3.40
2023-05-05T18:19:21.115Z,3.70
2023-05-05T18:22:50.650Z,3.80
2023-05-05T18:26:21.590Z,3.90
2023-05-05T18:29:48.715Z,3.70
2023-05-05T18:33:18.700Z,3.60
2023-05-05T18:36:46.889Z,4.00
2023-05-05T18:40:19.436Z,3.40
2023-05-05T18:44:03.431Z,3.40
2023-05-05T18:47:31.095Z,3.80
2023-05-05T18:51:04.625Z,4.30
2023-05-05T18:57:57.714Z,5.10
2023-05-05T19:01:24.689Z,4.10
2023-05-05T19:05:01.170Z,3.50
2023-05-05T19:08:31.359Z,4.20
2023-05-05T19:12:00.588Z,3.90
2023-05-05T19:15:28.334Z,3.80
2023-05-05T19:18:59.086Z,3.70
2023-05-05T19:22:27.422Z,4.30
2023-05-05T19:25:56.748Z,3.70
2023-05-05T19:29:25.312Z,3.60
2023-05-05T19:32:58.274Z,4.40
2023-05-05T19:36:28.015Z,4.10
2023-05-05T19:40:00.070Z,3.70
2023-05-05T19:43:36.050Z,3.60
2023-05-05T19:47:09.048Z,4.20
2023-05-05T19:50:42.046Z,3.30
2023-05-05T19:54:11.974Z,3.90
2023-05-05T19:57:44.919Z,3.60
2023-05-05T20:01:20.062Z,4.30
2023-05-05T20:04:51.590Z,3.80
2023-05-05T20:08:19.700Z,3.30
2023-05-05T20:11:49.217Z,3.10
2023-05-05T20:15:20.180Z,4.70
2023-05-05T20:19:00.147Z,4.60
2023-05-05T20:22:31.211Z,4.00
2023-05-05T20:26:04.153Z,3.60
2023-05-05T20:29:35.308Z,3.80
2023-05-05T20:33:07.592Z,3.40
2023-05-05T20:36:37.859Z,3.10
2023-05-05T20:40:07.854Z,2.80
2023-05-05T20:43:39.453Z,3.00
2023-05-05T20:47:10.267Z,3.30
2023-05-05T20:50:40.433Z,3.90
2023-05-05T20:54:11.759Z,3.80
2023-05-05T20:57:42.004Z,3.70
2023-05-05T21:01:12.594Z,3.60
2023-05-05T21:08:27.808Z,4.30
2023-05-05T21:11:56.640Z,4.20
2023-05-05T21:15:25.649Z,3.80
2023-05-05T21:18:52.675Z,4.00
2023-05-05T21:22:20.116Z,3.80
2023-05-05T21:25:51.424Z,3.50
2023-05-05T21:29:25.732Z,4.10
2023-05-05T21:32:53.868Z,4.20
2023-05-05T21:36:27.900Z,3.90
2023-05-05T21:40:01.061Z,4.30
2023-05-05T21:43:29.731Z,4.30
2023-05-05T21:46:56.965Z,4.00
2023-05-05T21:50:24.788Z,4.40
2023-05-05T21:53:52.589Z,4.10
2023-05-05T21:57:20.849Z,4.20
2023-05-05T22:00:50.959Z,4.40
2023-05-05T22:04:21.153Z,4.70
2023-05-05T22:07:48.839Z,4.90
2023-05-05T22:11:16.799Z,4.10
2023-05-05T22:14:44.702Z,4.30
2023-05-05T22:18:11.591Z,4.60
2023-05-05T22:21:38.791Z,5.10
2023-05-05T22:25:06.443Z,4.30
2023-05-05T22:28:33.706Z,4.90
2023-05-05T22:32:00.728Z,5.00
2023-05-05T22:35:28.373Z,5.20
2023-05-05T22:38:55.994Z,4.80
2023-05-05T22:42:22.696Z,4.40
2023-05-05T22:45:49.796Z,4.90
2023-05-05T22:49:25.773Z,5.10
2023-05-05T22:52:52.687Z,4.40
2023-05-05T22:56:20.109Z,4.30
2023-05-05T22:59:46.861Z,4.90
2023-05-05T23:03:13.712Z,4.70
2023-05-05T23:06:42.326Z,4.50
2023-05-05T23:10:12.912Z,4.20
2023-05-05T23:13:40.739Z,5.70
2023-05-05T23:17:07.909Z,4.80
2023-05-05T23:20:35.306Z,4.80
2023-05-05T23:24:02.480Z,4.90
2023-05-05T23:27:29.423Z,4.40
2023-05-05T23:30:56.576Z,5.60
2023-05-05T23:34:23.087Z,5.00
2023-05-05T23:37:51.608Z,5.00
2023-05-05T23:41:19.228Z,5.00
2023-05-05T23:44:46.072Z,5.50
2023-05-05T23:48:14.020Z,4.80
2023-05-05T23:51:41.138Z,5.10
2023-05-05T23:55:10.432Z,4.70
2023-05-05T23:58:40.852Z,5.00
